sensor_id;sensor_type;location;lat;lon;timestamp;temperature;humidity
24374;DHT22;12498;50.880;12.096;2023-02-12T00:02:03;6.10;99.90
24374;DHT22;12498;50.880;12.096;2023-02-12T00:04:29;6.10;99.90
24374;DHT22;12498;50.880;12.096;2023-02-12T00:06:54;6.10;99.90
24374;DHT22;12498;50.880;12.096;2023-02-12T00:09:20;6.10;99.90
24374;DHT22;12498;50.880;12.096;2023-02-12T00:11:45;6.10;99.90
24374;DHT22;12498;50.880;12.096;2023-02-12T00:14:11;6.20;99.90
24374;DHT22;12498;50.880;12.096;2023-02-12T00:16:36;7.00;99.90
24374;DHT22;12498;50.880;12.096;2023-02-12T00:19:02;6.20;99.90
24374;DHT22;12498;50.880;12.096;2023-02-12T00:21:28;6.10;99.90
24374;DHT22;12498;50.880;12.096;2023-02-12T00:23:53;6.10;99.90
24374;DHT22;12498;50.880;12.096;2023-02-12T00:26:20;6.00;99.90
24374;DHT22;12498;50.880;12.096;2023-02-12T00:28:46;6.20;99.90
24374;DHT22;12498;50.880;12.096;2023-02-12T00:31:12;6.00;99.90
24374;DHT22;12498;50.880;12.096;2023-02-12T00:33:38;6.20;99.90
24374;DHT22;12498;50.880;12.096;2023-02-12T00:36:03;6.00;99.90
24374;DHT22;12498;50.880;12.096;2023-02-12T00:38:29;6.20;99.90
24374;DHT22;12498;50.880;12.096;2023-02-12T00:40:55;6.50;99.90
24374;DHT22;12498;50.880;12.096;2023-02-12T00:43:20;6.20;99.90
24374;DHT22;12498;50.880;12.096;2023-02-12T00:45:46;6.60;99.90
24374;DHT22;12498;50.880;12.096;2023-02-12T00:48:12;6.20;99.90
24374;DHT22;12498;50.880;12.096;2023-02-12T00:50:38;6.10;99.90
24374;DHT22;12498;50.880;12.096;2023-02-12T00:53:05;6.30;99.90
24374;DHT22;12498;50.880;12.096;2023-02-12T00:55:31;6.30;99.90
24374;DHT22;12498;50.880;12.096;2023-02-12T00:57:57;6.80;99.90
24374;DHT22;12498;50.880;12.096;2023-02-12T01:00:23;6.20;99.90
24374;DHT22;12498;50.880;12.096;2023-02-12T01:02:48;6.30;99.90
24374;DHT22;12498;50.880;12.096;2023-02-12T01:05:14;6.80;99.90
24374;DHT22;12498;50.880;12.096;2023-02-12T01:07:39;6.30;99.90
24374;DHT22;12498;50.880;12.096;2023-02-12T01:10:05;6.60;99.90
24374;DHT22;12498;50.880;12.096;2023-02-12T01:12:31;6.30;99.90
24374;DHT22;12498;50.880;12.096;2023-02-12T01:14:57;6.30;99.90
24374;DHT22;12498;50.880;12.096;2023-02-12T01:17:22;6.30;99.90
24374;DHT22;12498;50.880;12.096;2023-02-12T01:19:48;6.30;99.90
24374;DHT22;12498;50.880;12.096;2023-02-12T01:22:13;6.20;99.90
24374;DHT22;12498;50.880;12.096;2023-02-12T01:24:39;6.30;99.90
24374;DHT22;12498;50.880;12.096;2023-02-12T01:27:04;7.20;99.90
24374;DHT22;12498;50.880;12.096;2023-02-12T01:29:30;6.30;99.90
24374;DHT22;12498;50.880;12.096;2023-02-12T01:31:55;6.30;99.90
24374;DHT22;12498;50.880;12.096;2023-02-12T01:34:21;6.30;99.90
24374;DHT22;12498;50.880;12.096;2023-02-12T01:36:47;6.40;99.90
24374;DHT22;12498;50.880;12.096;2023-02-12T01:39:12;6.40;99.90
24374;DHT22;12498;50.880;12.096;2023-02-12T01:41:39;6.30;99.90
24374;DHT22;12498;50.880;12.096;2023-02-12T01:46:30;6.30;99.90
24374;DHT22;12498;50.880;12.096;2023-02-12T01:48:56;6.20;99.90
24374;DHT22;12498;50.880;12.096;2023-02-12T01:51:21;6.40;99.90
24374;DHT22;12498;50.880;12.096;2023-02-12T01:53:50;6.60;99.90
24374;DHT22;12498;50.880;12.096;2023-02-12T01:56:16;6.30;99.90
24374;DHT22;12498;50.880;12.096;2023-02-12T01:58:43;6.60;99.90
24374;DHT22;12498;50.880;12.096;2023-02-12T02:01:11;6.50;99.90
24374;DHT22;12498;50.880;12.096;2023-02-12T02:03:37;6.30;99.90
24374;DHT22;12498;50.880;12.096;2023-02-12T02:06:23;6.20;99.90
24374;DHT22;12498;50.880;12.096;2023-02-12T02:08:52;6.20;99.90
24374;DHT22;12498;50.880;12.096;2023-02-12T02:11:17;6.20;99.90
24374;DHT22;12498;50.880;12.096;2023-02-12T02:14:01;6.50;99.90
24374;DHT22;12498;50.880;12.096;2023-02-12T02:16:47;6.30;99.90
24374;DHT22;12498;50.880;12.096;2023-02-12T02:20:20;6.10;99.90
24374;DHT22;12498;50.880;12.096;2023-02-12T02:27:21;6.30;99.90
24374;DHT22;12498;50.880;12.096;2023-02-12T02:32:37;6.30;99.90
24374;DHT22;12498;50.880;12.096;2023-02-12T02:35:07;6.40;99.90
24374;DHT22;12498;50.880;12.096;2023-02-12T02:37:37;6.30;99.90
24374;DHT22;12498;50.880;12.096;2023-02-12T02:40:11;6.30;99.90
24374;DHT22;12498;50.880;12.096;2023-02-12T02:42:51;6.30;99.90
24374;DHT22;12498;50.880;12.096;2023-02-12T02:45:24;6.40;99.90
24374;DHT22;12498;50.880;12.096;2023-02-12T02:47:54;6.40;99.90
24374;DHT22;12498;50.880;12.096;2023-02-12T02:50:22;6.90;99.90
24374;DHT22;12498;50.880;12.096;2023-02-12T02:52:52;6.40;99.90
24374;DHT22;12498;50.880;12.096;2023-02-12T02:55:21;6.40;99.90
24374;DHT22;12498;50.880;12.096;2023-02-12T02:57:55;7.30;99.90
24374;DHT22;12498;50.880;12.096;2023-02-12T03:00:23;6.40;99.90
24374;DHT22;12498;50.880;12.096;2023-02-12T03:02:54;6.40;99.90
24374;DHT22;12498;50.880;12.096;2023-02-12T03:05:23;6.20;99.90
24374;DHT22;12498;50.880;12.096;2023-02-12T03:07:52;6.30;99.90
24374;DHT22;12498;50.880;12.096;2023-02-12T03:10:20;6.90;99.90
24374;DHT22;12498;50.880;12.096;2023-02-12T03:12:51;7.00;99.90
24374;DHT22;12498;50.880;12.096;2023-02-12T03:17:59;6.40;99.90
24374;DHT22;12498;50.880;12.096;2023-02-12T03:20:35;6.70;99.90
24374;DHT22;12498;50.880;12.096;2023-02-12T03:23:03;6.30;99.90
24374;DHT22;12498;50.880;12.096;2023-02-12T03:25:39;6.70;99.90
24374;DHT22;12498;50.880;12.096;2023-02-12T03:28:09;6.40;99.90
24374;DHT22;12498;50.880;12.096;2023-02-12T03:30:46;6.40;99.90
24374;DHT22;12498;50.880;12.096;2023-02-12T03:33:18;6.40;99.90
24374;DHT22;12498;50.880;12.096;2023-02-12T03:35:55;6.30;99.90
24374;DHT22;12498;50.880;12.096;2023-02-12T03:40:54;6.30;99.90
24374;DHT22;12498;50.880;12.096;2023-02-12T03:43:22;6.30;99.90
24374;DHT22;12498;50.880;12.096;2023-02-12T03:45:51;6.40;99.90
24374;DHT22;12498;50.880;12.096;2023-02-12T03:48:33;6.40;99.90
24374;DHT22;12498;50.880;12.096;2023-02-12T03:53:25;6.40;99.90
24374;DHT22;12498;50.880;12.096;2023-02-12T03:55:52;6.40;99.90
24374;DHT22;12498;50.880;12.096;2023-02-12T03:58:19;6.50;99.90
24374;DHT22;12498;50.880;12.096;2023-02-12T04:00:46;6.40;99.90
24374;DHT22;12498;50.880;12.096;2023-02-12T04:03:12;6.40;99.90
24374;DHT22;12498;50.880;12.096;2023-02-12T04:05:37;7.30;99.90
24374;DHT22;12498;50.880;12.096;2023-02-12T04:08:03;6.80;99.90
24374;DHT22;12498;50.880;12.096;2023-02-12T04:13:18;6.40;99.90
24374;DHT22;12498;50.880;12.096;2023-02-12T04:15:48;6.40;99.90
24374;DHT22;12498;50.880;12.096;2023-02-12T04:28:39;6.30;99.90
24374;DHT22;12498;50.880;12.096;2023-02-12T04:31:10;6.40;99.90
24374;DHT22;12498;50.880;12.096;2023-02-12T04:33:45;7.30;99.90
24374;DHT22;12498;50.880;12.096;2023-02-12T04:36:13;6.40;99.90
24374;DHT22;12498;50.880;12.096;2023-02-12T04:38:41;6.20;99.90
24374;DHT22;12498;50.880;12.096;2023-02-12T04:41:07;6.70;99.90
24374;DHT22;12498;50.880;12.096;2023-02-12T04:43:34;6.40;99.90
24374;DHT22;12498;50.880;12.096;2023-02-12T04:46:00;6.30;99.90
24374;DHT22;12498;50.880;12.096;2023-02-12T04:48:26;6.40;99.90
24374;DHT22;12498;50.880;12.096;2023-02-12T04:50:52;6.30;99.90
24374;DHT22;12498;50.880;12.096;2023-02-12T04:53:17;7.10;99.90
24374;DHT22;12498;50.880;12.096;2023-02-12T04:55:43;7.50;99.90
24374;DHT22;12498;50.880;12.096;2023-02-12T04:58:08;7.20;99.90
24374;DHT22;12498;50.880;12.096;2023-02-12T05:00:34;6.60;99.90
24374;DHT22;12498;50.880;12.096;2023-02-12T05:02:59;6.40;99.90
24374;DHT22;12498;50.880;12.096;2023-02-12T05:05:25;6.40;99.90
24374;DHT22;12498;50.880;12.096;2023-02-12T05:07:51;6.40;99.90
24374;DHT22;12498;50.880;12.096;2023-02-12T05:10:16;6.70;99.90
24374;DHT22;12498;50.880;12.096;2023-02-12T05:12:42;6.40;99.90
24374;DHT22;12498;50.880;12.096;2023-02-12T05:15:07;6.40;99.90
24374;DHT22;12498;50.880;12.096;2023-02-12T05:17:33;6.40;99.90
24374;DHT22;12498;50.880;12.096;2023-02-12T05:19:59;6.50;99.90
24374;DHT22;12498;50.880;12.096;2023-02-12T05:22:24;7.20;99.90
24374;DHT22;12498;50.880;12.096;2023-02-12T05:24:50;6.40;99.90
24374;DHT22;12498;50.880;12.096;2023-02-12T05:27:15;7.00;99.90
24374;DHT22;12498;50.880;12.096;2023-02-12T05:29:41;7.20;99.90
24374;DHT22;12498;50.880;12.096;2023-02-12T05:32:06;6.90;99.90
24374;DHT22;12498;50.880;12.096;2023-02-12T05:34:32;6.40;99.90
24374;DHT22;12498;50.880;12.096;2023-02-12T05:36:58;6.50;99.90
24374;DHT22;12498;50.880;12.096;2023-02-12T05:39:24;6.40;99.90
24374;DHT22;12498;50.880;12.096;2023-02-12T05:41:49;6.60;99.90
24374;DHT22;12498;50.880;12.096;2023-02-12T05:44:15;6.40;99.90
24374;DHT22;12498;50.880;12.096;2023-02-12T05:46:40;7.40;99.90
24374;DHT22;12498;50.880;12.096;2023-02-12T05:49:06;6.40;99.90
24374;DHT22;12498;50.880;12.096;2023-02-12T05:51:32;6.40;99.90
24374;DHT22;12498;50.880;12.096;2023-02-12T05:53:59;6.40;99.90
24374;DHT22;12498;50.880;12.096;2023-02-12T05:56:26;6.20;99.90
24374;DHT22;12498;50.880;12.096;2023-02-12T05:58:53;6.90;99.90
24374;DHT22;12498;50.880;12.096;2023-02-12T06:01:20;7.60;99.90
24374;DHT22;12498;50.880;12.096;2023-02-12T06:03:46;6.40;99.90
24374;DHT22;12498;50.880;12.096;2023-02-12T06:06:11;6.40;99.90
24374;DHT22;12498;50.880;12.096;2023-02-12T06:08:37;7.20;99.90
24374;DHT22;12498;50.880;12.096;2023-02-12T06:11:05;6.40;99.90
24374;DHT22;12498;50.880;12.096;2023-02-12T06:13:31;6.50;99.90
24374;DHT22;12498;50.880;12.096;2023-02-12T06:15:57;6.50;99.90
24374;DHT22;12498;50.880;12.096;2023-02-12T06:18:23;6.40;99.90
24374;DHT22;12498;50.880;12.096;2023-02-12T06:20:48;6.50;99.90
24374;DHT22;12498;50.880;12.096;2023-02-12T06:23:14;6.50;99.90
24374;DHT22;12498;50.880;12.096;2023-02-12T06:25:39;6.50;99.90
24374;DHT22;12498;50.880;12.096;2023-02-12T06:28:05;6.50;99.90
24374;DHT22;12498;50.880;12.096;2023-02-12T06:30:32;6.60;99.90
24374;DHT22;12498;50.880;12.096;2023-02-12T06:32:58;7.10;99.90
24374;DHT22;12498;50.880;12.096;2023-02-12T06:35:23;6.60;99.90
24374;DHT22;12498;50.880;12.096;2023-02-12T06:37:49;6.50;99.90
24374;DHT22;12498;50.880;12.096;2023-02-12T06:40:14;6.60;99.90
24374;DHT22;12498;50.880;12.096;2023-02-12T06:42:40;6.50;99.90
24374;DHT22;12498;50.880;12.096;2023-02-12T06:45:06;6.20;99.90
24374;DHT22;12498;50.880;12.096;2023-02-12T06:47:31;6.50;99.90
24374;DHT22;12498;50.880;12.096;2023-02-12T06:49:57;7.10;99.90
24374;DHT22;12498;50.880;12.096;2023-02-12T06:52:22;6.90;99.90
24374;DHT22;12498;50.880;12.096;2023-02-12T06:54:48;6.50;99.90
24374;DHT22;12498;50.880;12.096;2023-02-12T06:57:13;6.50;99.90
24374;DHT22;12498;50.880;12.096;2023-02-12T06:59:39;6.50;99.90
24374;DHT22;12498;50.880;12.096;2023-02-12T07:02:04;6.40;99.90
24374;DHT22;12498;50.880;12.096;2023-02-12T07:04:30;6.50;99.90
24374;DHT22;12498;50.880;12.096;2023-02-12T07:06:55;7.40;99.90
24374;DHT22;12498;50.880;12.096;2023-02-12T07:09:21;6.50;99.90
24374;DHT22;12498;50.880;12.096;2023-02-12T07:11:46;6.50;99.90
24374;DHT22;12498;50.880;12.096;2023-02-12T07:14:15;7.20;99.90
24374;DHT22;12498;50.880;12.096;2023-02-12T07:16:41;6.90;99.90
24374;DHT22;12498;50.880;12.096;2023-02-12T07:19:06;6.70;99.90
24374;DHT22;12498;50.880;12.096;2023-02-12T07:21:32;6.60;99.90
24374;DHT22;12498;50.880;12.096;2023-02-12T07:23:57;6.60;99.90
24374;DHT22;12498;50.880;12.096;2023-02-12T07:26:23;6.60;99.90
24374;DHT22;12498;50.880;12.096;2023-02-12T07:28:49;6.60;99.90
24374;DHT22;12498;50.880;12.096;2023-02-12T07:33:40;6.60;99.90
24374;DHT22;12498;50.880;12.096;2023-02-12T07:36:07;6.70;99.90
24374;DHT22;12498;50.880;12.096;2023-02-12T07:38:33;7.30;99.90
24374;DHT22;12498;50.880;12.096;2023-02-12T07:41:15;7.60;99.90
24374;DHT22;12498;50.880;12.096;2023-02-12T07:43:41;7.70;99.90
24374;DHT22;12498;50.880;12.096;2023-02-12T07:46:11;8.10;99.90
24374;DHT22;12498;50.880;12.096;2023-02-12T07:48:37;8.60;99.90
24374;DHT22;12498;50.880;12.096;2023-02-12T07:51:04;8.10;99.90
24374;DHT22;12498;50.880;12.096;2023-02-12T07:53:30;8.30;99.90
24374;DHT22;12498;50.880;12.096;2023-02-12T07:56:02;8.20;99.90
24374;DHT22;12498;50.880;12.096;2023-02-12T07:58:28;8.20;99.90
24374;DHT22;12498;50.880;12.096;2023-02-12T08:00:53;8.10;99.90
24374;DHT22;12498;50.880;12.096;2023-02-12T08:03:19;8.40;99.90
24374;DHT22;12498;50.880;12.096;2023-02-12T08:05:44;8.00;99.90
24374;DHT22;12498;50.880;12.096;2023-02-12T08:08:10;8.20;99.90
24374;DHT22;12498;50.880;12.096;2023-02-12T08:10:35;7.40;99.90
24374;DHT22;12498;50.880;12.096;2023-02-12T08:13:01;7.40;99.90
24374;DHT22;12498;50.880;12.096;2023-02-12T08:15:26;7.20;99.90
24374;DHT22;12498;50.880;12.096;2023-02-12T08:17:52;8.00;99.90
24374;DHT22;12498;50.880;12.096;2023-02-12T08:20:19;7.20;99.90
24374;DHT22;12498;50.880;12.096;2023-02-12T08:22:45;8.00;99.90
24374;DHT22;12498;50.880;12.096;2023-02-12T08:25:10;7.40;99.90
24374;DHT22;12498;50.880;12.096;2023-02-12T08:27:36;7.20;99.90
24374;DHT22;12498;50.880;12.096;2023-02-12T08:30:02;7.00;99.90
24374;DHT22;12498;50.880;12.096;2023-02-12T08:32:27;7.00;99.90
24374;DHT22;12498;50.880;12.096;2023-02-12T08:34:53;7.00;99.90
24374;DHT22;12498;50.880;12.096;2023-02-12T08:37:19;7.10;99.90
24374;DHT22;12498;50.880;12.096;2023-02-12T08:39:44;7.00;99.90
24374;DHT22;12498;50.880;12.096;2023-02-12T08:42:10;7.00;99.90
24374;DHT22;12498;50.880;12.096;2023-02-12T08:44:35;7.70;99.90
24374;DHT22;12498;50.880;12.096;2023-02-12T08:47:01;7.40;99.90
24374;DHT22;12498;50.880;12.096;2023-02-12T08:49:27;7.10;99.90
24374;DHT22;12498;50.880;12.096;2023-02-12T08:51:54;7.10;99.90
24374;DHT22;12498;50.880;12.096;2023-02-12T08:54:21;7.00;99.90
24374;DHT22;12498;50.880;12.096;2023-02-12T08:56:48;7.10;99.90
24374;DHT22;12498;50.880;12.096;2023-02-12T08:59:14;7.60;99.90
24374;DHT22;12498;50.880;12.096;2023-02-12T09:01:39;7.10;99.90
24374;DHT22;12498;50.880;12.096;2023-02-12T09:04:06;7.60;99.90
24374;DHT22;12498;50.880;12.096;2023-02-12T09:06:33;7.10;99.90
24374;DHT22;12498;50.880;12.096;2023-02-12T09:08:59;7.10;99.90
24374;DHT22;12498;50.880;12.096;2023-02-12T09:11:25;7.10;99.90
24374;DHT22;12498;50.880;12.096;2023-02-12T09:13:58;7.20;99.90
24374;DHT22;12498;50.880;12.096;2023-02-12T09:16:24;8.10;99.90
24374;DHT22;12498;50.880;12.096;2023-02-12T09:18:49;7.80;99.90
24374;DHT22;12498;50.880;12.096;2023-02-12T09:21:15;7.70;99.90
24374;DHT22;12498;50.880;12.096;2023-02-12T09:23:41;7.30;99.90
24374;DHT22;12498;50.880;12.096;2023-02-12T09:26:08;7.60;99.90
24374;DHT22;12498;50.880;12.096;2023-02-12T09:28:34;7.60;99.90
24374;DHT22;12498;50.880;12.096;2023-02-12T09:31:07;7.10;99.90
24374;DHT22;12498;50.880;12.096;2023-02-12T09:33:33;7.20;99.90
24374;DHT22;12498;50.880;12.096;2023-02-12T09:36:02;7.30;99.90
24374;DHT22;12498;50.880;12.096;2023-02-12T09:38:28;7.40;99.90
24374;DHT22;12498;50.880;12.096;2023-02-12T09:46:26;7.40;99.90
24374;DHT22;12498;50.880;12.096;2023-02-12T09:49:16;7.30;99.90
24374;DHT22;12498;50.880;12.096;2023-02-12T09:51:39;7.30;99.90
24374;DHT22;12498;50.880;12.096;2023-02-12T09:54:15;7.40;99.90
24374;DHT22;12498;50.880;12.096;2023-02-12T09:56:57;8.20;99.90
24374;DHT22;12498;50.880;12.096;2023-02-12T10:01:52;7.60;99.90
24374;DHT22;12498;50.880;12.096;2023-02-12T10:04:24;7.70;99.90
24374;DHT22;12498;50.880;12.096;2023-02-12T10:07:02;7.90;99.90
24374;DHT22;12498;50.880;12.096;2023-02-12T10:09:47;7.80;99.90
24374;DHT22;12498;50.880;12.096;2023-02-12T10:12:21;7.80;99.90
24374;DHT22;12498;50.880;12.096;2023-02-12T10:22:33;7.80;99.90
24374;DHT22;12498;50.880;12.096;2023-02-12T10:27:50;8.30;99.90
24374;DHT22;12498;50.880;12.096;2023-02-12T10:30:20;7.90;99.90
24374;DHT22;12498;50.880;12.096;2023-02-12T10:32:47;7.90;99.90
24374;DHT22;12498;50.880;12.096;2023-02-12T10:35:15;7.80;99.90
24374;DHT22;12498;50.880;12.096;2023-02-12T10:37:42;7.80;99.90
24374;DHT22;12498;50.880;12.096;2023-02-12T10:40:17;8.00;99.90
24374;DHT22;12498;50.880;12.096;2023-02-12T10:42:44;8.00;99.90
24374;DHT22;12498;50.880;12.096;2023-02-12T10:45:20;8.10;99.90
24374;DHT22;12498;50.880;12.096;2023-02-12T10:47:47;8.30;99.90
24374;DHT22;12498;50.880;12.096;2023-02-12T10:51:01;8.30;99.90
24374;DHT22;12498;50.880;12.096;2023-02-12T10:53:04;8.30;99.90
24374;DHT22;12498;50.880;12.096;2023-02-12T10:55:34;8.30;99.90
24374;DHT22;12498;50.880;12.096;2023-02-12T10:58:00;8.40;99.90
24374;DHT22;12498;50.880;12.096;2023-02-12T11:05:28;8.50;99.90
24374;DHT22;12498;50.880;12.096;2023-02-12T11:07:53;8.60;99.90
24374;DHT22;12498;50.880;12.096;2023-02-12T11:10:20;8.40;99.90
24374;DHT22;12498;50.880;12.096;2023-02-12T11:12:46;8.90;99.90
24374;DHT22;12498;50.880;12.096;2023-02-12T11:15:17;8.40;99.90
24374;DHT22;12498;50.880;12.096;2023-02-12T11:17:45;8.40;99.90
24374;DHT22;12498;50.880;12.096;2023-02-12T11:20:29;8.70;99.90
24374;DHT22;12498;50.880;12.096;2023-02-12T11:23:00;8.40;99.90
24374;DHT22;12498;50.880;12.096;2023-02-12T11:25:28;8.40;99.90
24374;DHT22;12498;50.880;12.096;2023-02-12T11:28:01;8.80;99.90
24374;DHT22;12498;50.880;12.096;2023-02-12T11:30:27;8.40;99.90
24374;DHT22;12498;50.880;12.096;2023-02-12T11:32:53;8.40;99.90
24374;DHT22;12498;50.880;12.096;2023-02-12T11:35:20;8.50;99.90
24374;DHT22;12498;50.880;12.096;2023-02-12T11:37:51;8.60;99.90
24374;DHT22;12498;50.880;12.096;2023-02-12T11:40:21;8.60;99.90
24374;DHT22;12498;50.880;12.096;2023-02-12T11:42:57;8.70;99.90
24374;DHT22;12498;50.880;12.096;2023-02-12T11:45:26;8.70;99.90
24374;DHT22;12498;50.880;12.096;2023-02-12T11:47:54;8.60;99.90
24374;DHT22;12498;50.880;12.096;2023-02-12T11:50:27;8.70;99.90
24374;DHT22;12498;50.880;12.096;2023-02-12T11:52:55;8.60;99.90
24374;DHT22;12498;50.880;12.096;2023-02-12T11:55:32;8.70;99.90
24374;DHT22;12498;50.880;12.096;2023-02-12T11:58:03;8.70;99.90
24374;DHT22;12498;50.880;12.096;2023-02-12T12:00:46;8.70;99.90
24374;DHT22;12498;50.880;12.096;2023-02-12T12:03:15;8.70;99.90
24374;DHT22;12498;50.880;12.096;2023-02-12T12:05:47;8.70;99.90
24374;DHT22;12498;50.880;12.096;2023-02-12T12:10:50;8.90;99.90
24374;DHT22;12498;50.880;12.096;2023-02-12T12:13:20;8.90;99.90
24374;DHT22;12498;50.880;12.096;2023-02-12T12:15:56;8.80;99.90
24374;DHT22;12498;50.880;12.096;2023-02-12T12:18:48;8.90;99.90
24374;DHT22;12498;50.880;12.096;2023-02-12T12:21:39;8.70;99.90
24374;DHT22;12498;50.880;12.096;2023-02-12T12:26:54;8.80;99.90
24374;DHT22;12498;50.880;12.096;2023-02-12T12:32:09;8.80;99.90
24374;DHT22;12498;50.880;12.096;2023-02-12T12:34:36;8.90;99.90
24374;DHT22;12498;50.880;12.096;2023-02-12T12:47:15;9.50;99.90
24374;DHT22;12498;50.880;12.096;2023-02-12T12:57:38;10.00;99.90
24374;DHT22;12498;50.880;12.096;2023-02-12T13:02:42;9.80;99.90
24374;DHT22;12498;50.880;12.096;2023-02-12T13:20:41;8.90;99.90
24374;DHT22;12498;50.880;12.096;2023-02-12T13:23:14;8.80;99.90
24374;DHT22;12498;50.880;12.096;2023-02-12T13:26:01;8.70;99.90
24374;DHT22;12498;50.880;12.096;2023-02-12T13:28:49;8.50;99.90
24374;DHT22;12498;50.880;12.096;2023-02-12T13:31:18;8.70;99.90
24374;DHT22;12498;50.880;12.096;2023-02-12T13:33:49;8.70;99.90
24374;DHT22;12498;50.880;12.096;2023-02-12T13:36:15;8.80;99.90
24374;DHT22;12498;50.880;12.096;2023-02-12T13:38:43;8.70;99.90
24374;DHT22;12498;50.880;12.096;2023-02-12T13:41:10;8.70;99.90
24374;DHT22;12498;50.880;12.096;2023-02-12T14:00:56;9.10;99.90
24374;DHT22;12498;50.880;12.096;2023-02-12T14:03:23;9.00;99.90
24374;DHT22;12498;50.880;12.096;2023-02-12T14:06:05;8.70;99.90
24374;DHT22;12498;50.880;12.096;2023-02-12T14:08:36;9.00;99.90
24374;DHT22;12498;50.880;12.096;2023-02-12T14:11:04;9.00;99.90
24374;DHT22;12498;50.880;12.096;2023-02-12T14:13:30;8.90;99.90
24374;DHT22;12498;50.880;12.096;2023-02-12T14:16:17;8.90;99.90
24374;DHT22;12498;50.880;12.096;2023-02-12T14:18:43;8.90;99.90
24374;DHT22;12498;50.880;12.096;2023-02-12T14:23:43;8.90;99.90
24374;DHT22;12498;50.880;12.096;2023-02-12T14:26:14;8.80;99.90
24374;DHT22;12498;50.880;12.096;2023-02-12T14:33:44;8.70;99.90
24374;DHT22;12498;50.880;12.096;2023-02-12T14:36:14;8.80;99.90
24374;DHT22;12498;50.880;12.096;2023-02-12T14:46:49;8.90;99.90
24374;DHT22;12498;50.880;12.096;2023-02-12T14:49:17;8.90;99.90
24374;DHT22;12498;50.880;12.096;2023-02-12T14:51:50;8.90;99.90
24374;DHT22;12498;50.880;12.096;2023-02-12T14:56:50;8.90;99.90
24374;DHT22;12498;50.880;12.096;2023-02-12T14:59:18;8.90;99.90
24374;DHT22;12498;50.880;12.096;2023-02-12T15:01:44;8.90;99.90
24374;DHT22;12498;50.880;12.096;2023-02-12T15:04:13;9.60;99.90
24374;DHT22;12498;50.880;12.096;2023-02-12T15:06:48;8.80;99.90
24374;DHT22;12498;50.880;12.096;2023-02-12T15:09:19;8.80;99.90
24374;DHT22;12498;50.880;12.096;2023-02-12T15:11:54;8.70;99.90
24374;DHT22;12498;50.880;12.096;2023-02-12T15:14:23;8.70;99.90
24374;DHT22;12498;50.880;12.096;2023-02-12T15:17:07;8.60;99.90
24374;DHT22;12498;50.880;12.096;2023-02-12T15:22:22;8.40;99.90
24374;DHT22;12498;50.880;12.096;2023-02-12T15:24:49;8.40;99.90
24374;DHT22;12498;50.880;12.096;2023-02-12T15:27:15;8.30;99.90
24374;DHT22;12498;50.880;12.096;2023-02-12T15:29:42;8.30;99.90
24374;DHT22;12498;50.880;12.096;2023-02-12T15:32:13;8.30;99.90
24374;DHT22;12498;50.880;12.096;2023-02-12T15:34:40;8.30;99.90
24374;DHT22;12498;50.880;12.096;2023-02-12T15:37:07;8.30;99.90
24374;DHT22;12498;50.880;12.096;2023-02-12T15:39:38;8.20;99.90
24374;DHT22;12498;50.880;12.096;2023-02-12T15:42:21;8.70;99.90
24374;DHT22;12498;50.880;12.096;2023-02-12T15:44:46;8.10;99.90
24374;DHT22;12498;50.880;12.096;2023-02-12T15:47:13;8.20;99.90
24374;DHT22;12498;50.880;12.096;2023-02-12T15:49:40;8.40;99.90
24374;DHT22;12498;50.880;12.096;2023-02-12T15:52:10;8.20;99.90
24374;DHT22;12498;50.880;12.096;2023-02-12T15:54:41;8.20;99.90
24374;DHT22;12498;50.880;12.096;2023-02-12T15:57:08;8.20;99.90
24374;DHT22;12498;50.880;12.096;2023-02-12T15:59:34;8.10;99.90
24374;DHT22;12498;50.880;12.096;2023-02-12T16:02:00;8.10;99.90
24374;DHT22;12498;50.880;12.096;2023-02-12T16:04:30;8.10;99.90
24374;DHT22;12498;50.880;12.096;2023-02-12T16:06:56;8.10;99.90
24374;DHT22;12498;50.880;12.096;2023-02-12T16:09:27;8.10;99.90
24374;DHT22;12498;50.880;12.096;2023-02-12T16:11:55;8.10;99.90
24374;DHT22;12498;50.880;12.096;2023-02-12T16:14:23;8.00;99.90
24374;DHT22;12498;50.880;12.096;2023-02-12T16:16:50;8.00;99.90
24374;DHT22;12498;50.880;12.096;2023-02-12T16:21:46;8.00;99.90
24374;DHT22;12498;50.880;12.096;2023-02-12T16:24:46;8.50;99.90
24374;DHT22;12498;50.880;12.096;2023-02-12T16:29:43;8.00;99.90
24374;DHT22;12498;50.880;12.096;2023-02-12T16:32:10;8.00;99.90
24374;DHT22;12498;50.880;12.096;2023-02-12T16:34:57;8.00;99.90
24374;DHT22;12498;50.880;12.096;2023-02-12T16:37:42;8.00;99.90
24374;DHT22;12498;50.880;12.096;2023-02-12T16:42:33;8.00;99.90
24374;DHT22;12498;50.880;12.096;2023-02-12T16:44:59;7.90;99.90
24374;DHT22;12498;50.880;12.096;2023-02-12T16:47:24;7.90;99.90
24374;DHT22;12498;50.880;12.096;2023-02-12T16:49:54;7.90;99.90
24374;DHT22;12498;50.880;12.096;2023-02-12T16:52:32;7.90;99.90
24374;DHT22;12498;50.880;12.096;2023-02-12T16:54:59;7.90;99.90
24374;DHT22;12498;50.880;12.096;2023-02-12T16:57:24;7.90;99.90
24374;DHT22;12498;50.880;12.096;2023-02-12T16:59:50;7.90;99.90
24374;DHT22;12498;50.880;12.096;2023-02-12T17:02:15;7.90;99.90
24374;DHT22;12498;50.880;12.096;2023-02-12T17:04:41;8.20;99.90
24374;DHT22;12498;50.880;12.096;2023-02-12T17:10:02;7.90;99.90
24374;DHT22;12498;50.880;12.096;2023-02-12T17:12:27;7.80;99.90
24374;DHT22;12498;50.880;12.096;2023-02-12T17:14:53;7.80;99.90
24374;DHT22;12498;50.880;12.096;2023-02-12T17:17:20;7.80;99.90
24374;DHT22;12498;50.880;12.096;2023-02-12T17:19:45;7.80;99.90
24374;DHT22;12498;50.880;12.096;2023-02-12T17:22:18;8.50;99.90
24374;DHT22;12498;50.880;12.096;2023-02-12T17:24:44;7.80;99.90
24374;DHT22;12498;50.880;12.096;2023-02-12T17:27:16;7.80;99.90
24374;DHT22;12498;50.880;12.096;2023-02-12T17:29:42;7.80;99.90
24374;DHT22;12498;50.880;12.096;2023-02-12T17:32:08;7.80;99.90
24374;DHT22;12498;50.880;12.096;2023-02-12T17:34:33;7.80;99.90
24374;DHT22;12498;50.880;12.096;2023-02-12T17:37:02;7.80;99.90
24374;DHT22;12498;50.880;12.096;2023-02-12T17:39:27;7.80;99.90
24374;DHT22;12498;50.880;12.096;2023-02-12T17:41:53;7.80;99.90
24374;DHT22;12498;50.880;12.096;2023-02-12T17:44:19;7.60;99.90
24374;DHT22;12498;50.880;12.096;2023-02-12T17:46:44;7.80;99.90
24374;DHT22;12498;50.880;12.096;2023-02-12T17:49:10;7.80;99.90
24374;DHT22;12498;50.880;12.096;2023-02-12T17:51:37;7.80;99.90
24374;DHT22;12498;50.880;12.096;2023-02-12T17:54:03;7.80;99.90
24374;DHT22;12498;50.880;12.096;2023-02-12T17:56:29;7.80;99.90
24374;DHT22;12498;50.880;12.096;2023-02-12T17:58:54;7.80;99.90
24374;DHT22;12498;50.880;12.096;2023-02-12T18:01:21;7.80;99.90
24374;DHT22;12498;50.880;12.096;2023-02-12T18:03:47;7.70;99.90
24374;DHT22;12498;50.880;12.096;2023-02-12T18:06:19;7.80;99.90
24374;DHT22;12498;50.880;12.096;2023-02-12T18:08:45;7.80;99.90